sensor_id;sensor_type;location;lat;lon;timestamp;temperature;humidity
47414;DHT22;33163;0.000;0.000;2023-03-01T00:01:27;18.50;42.00
47414;DHT22;33163;0.000;0.000;2023-03-01T00:03:54;18.50;42.00
47414;DHT22;33163;0.000;0.000;2023-03-01T00:06:22;18.50;41.90
47414;DHT22;33163;0.000;0.000;2023-03-01T00:08:49;18.50;41.80
47414;DHT22;33163;0.000;0.000;2023-03-01T00:11:18;18.60;41.80
47414;DHT22;33163;0.000;0.000;2023-03-01T00:13:46;18.60;41.70
47414;DHT22;33163;0.000;0.000;2023-03-01T00:16:15;18.60;41.80
47414;DHT22;33163;0.000;0.000;2023-03-01T00:18:44;18.50;41.70
47414;DHT22;33163;0.000;0.000;2023-03-01T00:21:11;18.50;41.60
47414;DHT22;33163;0.000;0.000;2023-03-01T00:23:38;18.50;41.60
47414;DHT22;33163;0.000;0.000;2023-03-01T00:26:07;18.50;41.60
47414;DHT22;33163;0.000;0.000;2023-03-01T00:28:34;18.60;41.70
47414;DHT22;33163;0.000;0.000;2023-03-01T00:31:03;18.60;41.60
47414;DHT22;33163;0.000;0.000;2023-03-01T00:33:30;18.50;41.50
47414;DHT22;33163;0.000;0.000;2023-03-01T00:35:59;18.50;41.50
47414;DHT22;33163;0.000;0.000;2023-03-01T00:38:26;18.50;41.50
47414;DHT22;33163;0.000;0.000;2023-03-01T00:40:53;18.50;41.50
47414;DHT22;33163;0.000;0.000;2023-03-01T00:43:20;18.50;41.40
47414;DHT22;33163;0.000;0.000;2023-03-01T00:45:47;18.50;41.50
47414;DHT22;33163;0.000;0.000;2023-03-01T00:48:14;18.50;41.50
47414;DHT22;33163;0.000;0.000;2023-03-01T00:50:41;18.40;41.40
47414;DHT22;33163;0.000;0.000;2023-03-01T00:53:09;18.40;42.20
47414;DHT22;33163;0.000;0.000;2023-03-01T00:55:36;18.40;41.50
47414;DHT22;33163;0.000;0.000;2023-03-01T00:58:02;18.40;41.50
47414;DHT22;33163;0.000;0.000;2023-03-01T01:00:29;18.40;41.50
47414;DHT22;33163;0.000;0.000;2023-03-01T01:02:56;18.40;41.50
47414;DHT22;33163;0.000;0.000;2023-03-01T01:05:23;18.30;41.50
47414;DHT22;33163;0.000;0.000;2023-03-01T01:07:49;18.30;41.50
47414;DHT22;33163;0.000;0.000;2023-03-01T01:10:18;18.30;41.50
47414;DHT22;33163;0.000;0.000;2023-03-01T01:12:46;18.30;41.60
47414;DHT22;33163;0.000;0.000;2023-03-01T01:15:13;18.30;41.70
47414;DHT22;33163;0.000;0.000;2023-03-01T01:17:42;18.40;41.60
47414;DHT22;33163;0.000;0.000;2023-03-01T01:20:10;18.40;41.60
47414;DHT22;33163;0.000;0.000;2023-03-01T01:22:37;18.40;41.60
47414;DHT22;33163;0.000;0.000;2023-03-01T01:25:04;18.40;41.50
47414;DHT22;33163;0.000;0.000;2023-03-01T01:27:33;18.40;41.40
47414;DHT22;33163;0.000;0.000;2023-03-01T01:29:59;18.50;41.50
47414;DHT22;33163;0.000;0.000;2023-03-01T01:32:26;18.50;41.40
47414;DHT22;33163;0.000;0.000;2023-03-01T01:34:53;18.50;41.40
47414;DHT22;33163;0.000;0.000;2023-03-01T01:37:20;18.40;41.30
47414;DHT22;33163;0.000;0.000;2023-03-01T01:39:47;18.50;41.40
47414;DHT22;33163;0.000;0.000;2023-03-01T01:42:15;18.40;41.40
47414;DHT22;33163;0.000;0.000;2023-03-01T01:44:46;18.40;41.40
47414;DHT22;33163;0.000;0.000;2023-03-01T01:47:15;18.40;41.40
47414;DHT22;33163;0.000;0.000;2023-03-01T01:49:46;18.40;41.40
47414;DHT22;33163;0.000;0.000;2023-03-01T01:52:17;18.40;41.40
47414;DHT22;33163;0.000;0.000;2023-03-01T01:54:49;18.40;41.40
47414;DHT22;33163;0.000;0.000;2023-03-01T01:57:20;18.40;41.40
47414;DHT22;33163;0.000;0.000;2023-03-01T01:59:52;18.40;41.40
47414;DHT22;33163;0.000;0.000;2023-03-01T02:02:20;18.40;41.40
47414;DHT22;33163;0.000;0.000;2023-03-01T02:04:48;18.40;41.40
47414;DHT22;33163;0.000;0.000;2023-03-01T02:07:18;18.30;41.40
47414;DHT22;33163;0.000;0.000;2023-03-01T02:09:48;18.30;41.40
47414;DHT22;33163;0.000;0.000;2023-03-01T02:12:17;18.30;41.40
47414;DHT22;33163;0.000;0.000;2023-03-01T02:14:45;18.40;41.50
47414;DHT22;33163;0.000;0.000;2023-03-01T02:17:15;18.40;41.50
47414;DHT22;33163;0.000;0.000;2023-03-01T02:19:56;18.40;41.40
47414;DHT22;33163;0.000;0.000;2023-03-01T02:22:28;18.40;41.30
47414;DHT22;33163;0.000;0.000;2023-03-01T02:25:03;18.50;41.40
47414;DHT22;33163;0.000;0.000;2023-03-01T02:27:38;18.50;41.30
47414;DHT22;33163;0.000;0.000;2023-03-01T02:30:09;18.50;41.20
47414;DHT22;33163;0.000;0.000;2023-03-01T02:32:38;18.50;41.20
47414;DHT22;33163;0.000;0.000;2023-03-01T02:35:09;18.60;41.20
47414;DHT22;33163;0.000;0.000;2023-03-01T02:37:37;18.60;41.10
47414;DHT22;33163;0.000;0.000;2023-03-01T02:40:07;18.60;41.10
47414;DHT22;33163;0.000;0.000;2023-03-01T02:42:40;18.60;41.00
47414;DHT22;33163;0.000;0.000;2023-03-01T02:45:11;18.50;41.00
47414;DHT22;33163;0.000;0.000;2023-03-01T02:47:38;18.50;41.00
47414;DHT22;33163;0.000;0.000;2023-03-01T02:50:13;18.50;41.10
47414;DHT22;33163;0.000;0.000;2023-03-01T02:52:45;18.50;41.10
47414;DHT22;33163;0.000;0.000;2023-03-01T02:55:16;18.50;41.10
47414;DHT22;33163;0.000;0.000;2023-03-01T02:57:45;18.50;41.10
47414;DHT22;33163;0.000;0.000;2023-03-01T03:00:16;18.50;41.00
47414;DHT22;33163;0.000;0.000;2023-03-01T03:02:46;18.50;41.00
47414;DHT22;33163;0.000;0.000;2023-03-01T03:05:14;18.50;41.10
47414;DHT22;33163;0.000;0.000;2023-03-01T03:07:44;18.50;41.00
47414;DHT22;33163;0.000;0.000;2023-03-01T03:10:14;18.50;41.00
47414;DHT22;33163;0.000;0.000;2023-03-01T03:12:41;18.50;41.00
47414;DHT22;33163;0.000;0.000;2023-03-01T03:15:12;18.50;40.90
47414;DHT22;33163;0.000;0.000;2023-03-01T03:17:40;18.50;41.00
47414;DHT22;33163;0.000;0.000;2023-03-01T03:20:09;18.50;41.00
47414;DHT22;33163;0.000;0.000;2023-03-01T03:22:37;18.50;41.00
47414;DHT22;33163;0.000;0.000;2023-03-01T03:25:05;18.50;41.00
47414;DHT22;33163;0.000;0.000;2023-03-01T03:27:35;18.50;41.00
47414;DHT22;33163;0.000;0.000;2023-03-01T03:30:04;18.50;40.90
47414;DHT22;33163;0.000;0.000;2023-03-01T03:32:35;18.60;41.00
47414;DHT22;33163;0.000;0.000;2023-03-01T03:35:02;18.50;40.90
47414;DHT22;33163;0.000;0.000;2023-03-01T03:37:34;18.50;40.90
47414;DHT22;33163;0.000;0.000;2023-03-01T03:40:19;18.50;40.90
47414;DHT22;33163;0.000;0.000;2023-03-01T03:42:45;18.50;40.90
47414;DHT22;33163;0.000;0.000;2023-03-01T03:45:13;18.50;40.80
47414;DHT22;33163;0.000;0.000;2023-03-01T03:47:41;18.50;40.90
47414;DHT22;33163;0.000;0.000;2023-03-01T03:50:10;18.50;40.90
47414;DHT22;33163;0.000;0.000;2023-03-01T03:52:37;18.50;40.90
47414;DHT22;33163;0.000;0.000;2023-03-01T03:55:04;18.50;40.80
47414;DHT22;33163;0.000;0.000;2023-03-01T03:57:34;18.60;40.90
47414;DHT22;33163;0.000;0.000;2023-03-01T04:00:01;18.60;40.90
47414;DHT22;33163;0.000;0.000;2023-03-01T04:02:30;18.60;40.80
47414;DHT22;33163;0.000;0.000;2023-03-01T04:04:58;18.60;40.70
47414;DHT22;33163;0.000;0.000;2023-03-01T04:07:25;18.70;40.70
47414;DHT22;33163;0.000;0.000;2023-03-01T04:09:52;18.70;40.60
47414;DHT22;33163;0.000;0.000;2023-03-01T04:12:18;18.80;40.60
47414;DHT22;33163;0.000;0.000;2023-03-01T04:14:48;18.80;40.50
47414;DHT22;33163;0.000;0.000;2023-03-01T04:17:15;18.80;40.50
47414;DHT22;33163;0.000;0.000;2023-03-01T04:19:42;18.80;40.50
47414;DHT22;33163;0.000;0.000;2023-03-01T04:22:10;18.80;40.50
47414;DHT22;33163;0.000;0.000;2023-03-01T04:24:42;18.80;40.50
47414;DHT22;33163;0.000;0.000;2023-03-01T04:27:09;18.90;40.40
47414;DHT22;33163;0.000;0.000;2023-03-01T04:29:36;18.90;40.30
47414;DHT22;33163;0.000;0.000;2023-03-01T04:32:03;18.90;40.30
47414;DHT22;33163;0.000;0.000;2023-03-01T04:34:30;18.90;40.30
47414;DHT22;33163;0.000;0.000;2023-03-01T04:36:57;18.90;40.30
47414;DHT22;33163;0.000;0.000;2023-03-01T04:39:25;18.90;40.40
47414;DHT22;33163;0.000;0.000;2023-03-01T04:41:52;18.80;40.30
47414;DHT22;33163;0.000;0.000;2023-03-01T04:44:19;18.80;40.30
47414;DHT22;33163;0.000;0.000;2023-03-01T04:46:48;18.80;40.40
47414;DHT22;33163;0.000;0.000;2023-03-01T04:49:14;18.70;40.40
47414;DHT22;33163;0.000;0.000;2023-03-01T04:51:41;18.70;40.40
47414;DHT22;33163;0.000;0.000;2023-03-01T04:54:11;18.70;40.40
47414;DHT22;33163;0.000;0.000;2023-03-01T04:56:39;18.70;40.50
47414;DHT22;33163;0.000;0.000;2023-03-01T04:59:06;18.70;40.50
47414;DHT22;33163;0.000;0.000;2023-03-01T05:01:35;18.70;40.50
47414;DHT22;33163;0.000;0.000;2023-03-01T05:04:02;18.70;40.40
47414;DHT22;33163;0.000;0.000;2023-03-01T05:06:31;18.80;40.40
47414;DHT22;33163;0.000;0.000;2023-03-01T05:08:58;18.80;40.40
47414;DHT22;33163;0.000;0.000;2023-03-01T05:11:25;18.80;40.30
47414;DHT22;33163;0.000;0.000;2023-03-01T05:13:54;18.80;40.20
47414;DHT22;33163;0.000;0.000;2023-03-01T05:16:21;18.80;40.20
47414;DHT22;33163;0.000;0.000;2023-03-01T05:18:48;18.80;40.20
47414;DHT22;33163;0.000;0.000;2023-03-01T05:21:16;18.80;40.20
47414;DHT22;33163;0.000;0.000;2023-03-01T05:23:43;18.80;40.30
47414;DHT22;33163;0.000;0.000;2023-03-01T05:26:10;18.70;40.30
47414;DHT22;33163;0.000;0.000;2023-03-01T05:28:38;18.70;40.30
47414;DHT22;33163;0.000;0.000;2023-03-01T05:31:06;18.70;40.30
47414;DHT22;33163;0.000;0.000;2023-03-01T05:33:35;18.70;40.30
47414;DHT22;33163;0.000;0.000;2023-03-01T05:36:03;18.80;40.30
47414;DHT22;33163;0.000;0.000;2023-03-01T05:38:30;18.80;40.40
47414;DHT22;33163;0.000;0.000;2023-03-01T05:40:56;18.80;40.20
47414;DHT22;33163;0.000;0.000;2023-03-01T05:43:23;18.80;40.20
47414;DHT22;33163;0.000;0.000;2023-03-01T05:45:50;18.80;40.10
47414;DHT22;33163;0.000;0.000;2023-03-01T05:48:18;18.90;40.20
47414;DHT22;33163;0.000;0.000;2023-03-01T05:50:46;18.90;40.10
47414;DHT22;33163;0.000;0.000;2023-03-01T05:53:14;18.90;40.10
47414;DHT22;33163;0.000;0.000;2023-03-01T05:55:41;19.00;40.00
47414;DHT22;33163;0.000;0.000;2023-03-01T05:58:12;19.00;39.90
47414;DHT22;33163;0.000;0.000;2023-03-01T06:00:40;19.00;39.80
47414;DHT22;33163;0.000;0.000;2023-03-01T06:03:09;19.00;39.80
47414;DHT22;33163;0.000;0.000;2023-03-01T06:05:37;19.00;39.80
47414;DHT22;33163;0.000;0.000;2023-03-01T06:08:05;19.00;39.90
47414;DHT22;33163;0.000;0.000;2023-03-01T06:10:31;18.90;39.80
47414;DHT22;33163;0.000;0.000;2023-03-01T06:12:59;18.90;39.90
47414;DHT22;33163;0.000;0.000;2023-03-01T06:15:26;18.90;39.90
47414;DHT22;33163;0.000;0.000;2023-03-01T06:17:54;18.90;39.90
47414;DHT22;33163;0.000;0.000;2023-03-01T06:20:24;18.90;39.80
47414;DHT22;33163;0.000;0.000;2023-03-01T06:22:52;18.90;39.90
47414;DHT22;33163;0.000;0.000;2023-03-01T06:25:22;18.90;39.90
47414;DHT22;33163;0.000;0.000;2023-03-01T06:27:50;18.90;39.80
47414;DHT22;33163;0.000;0.000;2023-03-01T06:30:19;18.90;39.80
47414;DHT22;33163;0.000;0.000;2023-03-01T06:32:46;18.90;39.70
47414;DHT22;33163;0.000;0.000;2023-03-01T06:35:14;18.90;39.80
47414;DHT22;33163;0.000;0.000;2023-03-01T06:37:43;18.90;39.80
47414;DHT22;33163;0.000;0.000;2023-03-01T06:40:12;18.90;39.80
47414;DHT22;33163;0.000;0.000;2023-03-01T06:42:41;18.90;39.80
47414;DHT22;33163;0.000;0.000;2023-03-01T06:45:09;18.90;39.80
47414;DHT22;33163;0.000;0.000;2023-03-01T06:47:36;18.80;39.80
47414;DHT22;33163;0.000;0.000;2023-03-01T06:50:03;18.90;39.90
47414;DHT22;33163;0.000;0.000;2023-03-01T06:52:30;18.90;39.80
47414;DHT22;33163;0.000;0.000;2023-03-01T06:54:57;18.90;39.80
47414;DHT22;33163;0.000;0.000;2023-03-01T06:57:25;18.90;39.80
47414;DHT22;33163;0.000;0.000;2023-03-01T06:59:52;18.90;39.80
47414;DHT22;33163;0.000;0.000;2023-03-01T07:02:19;18.90;39.70
47414;DHT22;33163;0.000;0.000;2023-03-01T07:04:46;18.90;39.60
47414;DHT22;33163;0.000;0.000;2023-03-01T07:07:12;18.90;39.50
47414;DHT22;33163;0.000;0.000;2023-03-01T07:09:39;19.00;39.60
47414;DHT22;33163;0.000;0.000;2023-03-01T07:12:06;19.00;39.60
47414;DHT22;33163;0.000;0.000;2023-03-01T07:14:34;19.00;39.50
47414;DHT22;33163;0.000;0.000;2023-03-01T07:17:01;19.00;39.40
47414;DHT22;33163;0.000;0.000;2023-03-01T07:19:28;19.00;39.50
47414;DHT22;33163;0.000;0.000;2023-03-01T07:21:55;19.00;39.50
47414;DHT22;33163;0.000;0.000;2023-03-01T07:24:22;19.00;39.50
47414;DHT22;33163;0.000;0.000;2023-03-01T07:26:49;19.00;39.50
47414;DHT22;33163;0.000;0.000;2023-03-01T07:29:16;19.00;39.50
47414;DHT22;33163;0.000;0.000;2023-03-01T07:31:44;18.90;39.60
47414;DHT22;33163;0.000;0.000;2023-03-01T07:34:11;18.90;39.60
47414;DHT22;33163;0.000;0.000;2023-03-01T07:36:38;18.90;39.80
47414;DHT22;33163;0.000;0.000;2023-03-01T07:39:09;18.90;39.90
47414;DHT22;33163;0.000;0.000;2023-03-01T07:41:35;18.90;40.00
47414;DHT22;33163;0.000;0.000;2023-03-01T07:44:02;18.90;40.10
47414;DHT22;33163;0.000;0.000;2023-03-01T07:46:29;18.90;40.20
47414;DHT22;33163;0.000;0.000;2023-03-01T07:48:57;19.00;40.50
47414;DHT22;33163;0.000;0.000;2023-03-01T07:51:24;19.10;40.80
47414;DHT22;33163;0.000;0.000;2023-03-01T07:53:51;19.10;40.80
47414;DHT22;33163;0.000;0.000;2023-03-01T07:56:18;19.20;40.70
47414;DHT22;33163;0.000;0.000;2023-03-01T07:58:45;19.30;40.60
47414;DHT22;33163;0.000;0.000;2023-03-01T08:01:14;19.40;41.20
47414;DHT22;33163;0.000;0.000;2023-03-01T08:03:41;19.40;40.40
47414;DHT22;33163;0.000;0.000;2023-03-01T08:06:12;19.40;40.20
47414;DHT22;33163;0.000;0.000;2023-03-01T08:08:39;19.60;40.20
47414;DHT22;33163;0.000;0.000;2023-03-01T08:11:07;19.60;40.10
47414;DHT22;33163;0.000;0.000;2023-03-01T08:13:36;19.60;40.10
47414;DHT22;33163;0.000;0.000;2023-03-01T08:16:04;19.60;40.00
47414;DHT22;33163;0.000;0.000;2023-03-01T08:18:31;19.70;40.00
47414;DHT22;33163;0.000;0.000;2023-03-01T08:21:02;19.80;40.00
47414;DHT22;33163;0.000;0.000;2023-03-01T08:23:30;19.80;40.00
47414;DHT22;33163;0.000;0.000;2023-03-01T08:26:04;19.80;39.90
47414;DHT22;33163;0.000;0.000;2023-03-01T08:28:31;19.90;39.80
47414;DHT22;33163;0.000;0.000;2023-03-01T08:30:58;19.90;39.80
47414;DHT22;33163;0.000;0.000;2023-03-01T08:33:25;19.90;40.00
47414;DHT22;33163;0.000;0.000;2023-03-01T08:35:51;20.00;39.90
47414;DHT22;33163;0.000;0.000;2023-03-01T08:38:18;20.00;39.90
47414;DHT22;33163;0.000;0.000;2023-03-01T08:40:46;20.00;39.90
47414;DHT22;33163;0.000;0.000;2023-03-01T08:43:13;20.10;40.00
47414;DHT22;33163;0.000;0.000;2023-03-01T08:45:40;20.10;40.10
47414;DHT22;33163;0.000;0.000;2023-03-01T08:48:06;20.10;40.10
47414;DHT22;33163;0.000;0.000;2023-03-01T08:50:33;20.20;40.20
47414;DHT22;33163;0.000;0.000;2023-03-01T08:53:00;20.20;40.30
47414;DHT22;33163;0.000;0.000;2023-03-01T08:55:27;20.30;40.30
47414;DHT22;33163;0.000;0.000;2023-03-01T08:57:55;20.30;40.40
47414;DHT22;33163;0.000;0.000;2023-03-01T09:00:24;20.40;40.50
47414;DHT22;33163;0.000;0.000;2023-03-01T09:02:51;20.40;40.60
47414;DHT22;33163;0.000;0.000;2023-03-01T09:05:18;20.40;40.60
47414;DHT22;33163;0.000;0.000;2023-03-01T09:07:44;20.40;40.70
47414;DHT22;33163;0.000;0.000;2023-03-01T09:10:11;20.50;40.80
47414;DHT22;33163;0.000;0.000;2023-03-01T09:12:38;20.40;41.00
47414;DHT22;33163;0.000;0.000;2023-03-01T09:15:07;20.40;41.20
47414;DHT22;33163;0.000;0.000;2023-03-01T09:17:35;20.30;41.30
47414;DHT22;33163;0.000;0.000;2023-03-01T09:20:01;20.30;41.30
47414;DHT22;33163;0.000;0.000;2023-03-01T09:22:32;20.40;41.40
47414;DHT22;33163;0.000;0.000;2023-03-01T09:24:59;20.40;41.40
47414;DHT22;33163;0.000;0.000;2023-03-01T09:27:26;20.50;41.40
47414;DHT22;33163;0.000;0.000;2023-03-01T09:29:53;20.40;41.60
47414;DHT22;33163;0.000;0.000;2023-03-01T09:32:23;20.40;41.90
47414;DHT22;33163;0.000;0.000;2023-03-01T09:34:49;20.40;42.00
47414;DHT22;33163;0.000;0.000;2023-03-01T09:37:30;20.40;42.30
47414;DHT22;33163;0.000;0.000;2023-03-01T09:39:57;20.40;42.30
47414;DHT22;33163;0.000;0.000;2023-03-01T09:42:25;20.40;42.50
47414;DHT22;33163;0.000;0.000;2023-03-01T09:44:54;20.40;42.60
47414;DHT22;33163;0.000;0.000;2023-03-01T09:47:27;20.40;42.60
47414;DHT22;33163;0.000;0.000;2023-03-01T09:50:03;20.50;42.80
47414;DHT22;33163;0.000;0.000;2023-03-01T09:52:36;20.60;43.10
47414;DHT22;33163;0.000;0.000;2023-03-01T09:55:10;20.70;43.30
47414;DHT22;33163;0.000;0.000;2023-03-01T09:57:43;20.80;43.60
47414;DHT22;33163;0.000;0.000;2023-03-01T10:00:22;20.90;43.40
47414;DHT22;33163;0.000;0.000;2023-03-01T10:02:58;20.90;43.20
47414;DHT22;33163;0.000;0.000;2023-03-01T10:05:38;20.80;43.20
47414;DHT22;33163;0.000;0.000;2023-03-01T10:08:36;20.80;43.20
47414;DHT22;33163;0.000;0.000;2023-03-01T10:11:18;20.80;43.40
47414;DHT22;33163;0.000;0.000;2023-03-01T10:13:50;21.00;43.60
47414;DHT22;33163;0.000;0.000;2023-03-01T10:16:22;21.00;43.40
47414;DHT22;33163;0.000;0.000;2023-03-01T10:18:55;21.10;43.40
47414;DHT22;33163;0.000;0.000;2023-03-01T10:21:27;21.10;43.30
47414;DHT22;33163;0.000;0.000;2023-03-01T10:24:10;21.10;45.50
47414;DHT22;33163;0.000;0.000;2023-03-01T10:26:44;21.20;44.30
47414;DHT22;33163;0.000;0.000;2023-03-01T10:29:13;21.20;44.20
47414;DHT22;33163;0.000;0.000;2023-03-01T10:31:43;21.30;44.30
47414;DHT22;33163;0.000;0.000;2023-03-01T10:34:14;21.30;44.40
47414;DHT22;33163;0.000;0.000;2023-03-01T10:36:47;21.40;44.20
47414;DHT22;33163;0.000;0.000;2023-03-01T10:39:17;21.40;43.90
47414;DHT22;33163;0.000;0.000;2023-03-01T10:42:02;21.50;43.80
47414;DHT22;33163;0.000;0.000;2023-03-01T10:44:41;21.50;43.70
47414;DHT22;33163;0.000;0.000;2023-03-01T10:47:14;21.40;43.70
47414;DHT22;33163;0.000;0.000;2023-03-01T10:49:53;21.40;43.90
47414;DHT22;33163;0.000;0.000;2023-03-01T10:52:23;21.50;43.90
47414;DHT22;33163;0.000;0.000;2023-03-01T10:54:53;21.50;43.90
47414;DHT22;33163;0.000;0.000;2023-03-01T10:57:33;21.50;43.80
47414;DHT22;33163;0.000;0.000;2023-03-01T11:00:24;21.50;43.90
47414;DHT22;33163;0.000;0.000;2023-03-01T11:03:03;21.60;43.80
47414;DHT22;33163;0.000;0.000;2023-03-01T11:05:37;21.60;43.60
47414;DHT22;33163;0.000;0.000;2023-03-01T11:08:30;21.70;43.50
47414;DHT22;33163;0.000;0.000;2023-03-01T11:11:13;21.80;43.40
47414;DHT22;33163;0.000;0.000;2023-03-01T11:13:53;21.70;43.20
47414;DHT22;33163;0.000;0.000;2023-03-01T11:16:29;21.70;43.70
47414;DHT22;33163;0.000;0.000;2023-03-01T11:18:58;21.70;43.50
47414;DHT22;33163;0.000;0.000;2023-03-01T11:21:28;21.80;43.40
47414;DHT22;33163;0.000;0.000;2023-03-01T11:23:58;21.80;43.20
47414;DHT22;33163;0.000;0.000;2023-03-01T11:26:27;21.70;43.20
47414;DHT22;33163;0.000;0.000;2023-03-01T11:28:58;21.70;43.30
47414;DHT22;33163;0.000;0.000;2023-03-01T11:31:27;21.70;43.40
47414;DHT22;33163;0.000;0.000;2023-03-01T11:33:57;21.80;43.40
47414;DHT22;33163;0.000;0.000;2023-03-01T11:36:31;21.90;43.10
47414;DHT22;33163;0.000;0.000;2023-03-01T11:39:05;21.90;43.10
47414;DHT22;33163;0.000;0.000;2023-03-01T11:41:39;21.90;43.00
47414;DHT22;33163;0.000;0.000;2023-03-01T11:44:14;21.90;42.90
47414;DHT22;33163;0.000;0.000;2023-03-01T11:47:16;21.90;42.80
47414;DHT22;33163;0.000;0.000;2023-03-01T11:50:02;21.90;42.80
47414;DHT22;33163;0.000;0.000;2023-03-01T11:52:43;21.90;42.90
47414;DHT22;33163;0.000;0.000;2023-03-01T11:55:26;21.90;43.00
47414;DHT22;33163;0.000;0.000;2023-03-01T11:58:08;21.90;42.90
47414;DHT22;33163;0.000;0.000;2023-03-01T12:00:49;22.00;42.70
47414;DHT22;33163;0.000;0.000;2023-03-01T12:03:27;22.00;42.50
47414;DHT22;33163;0.000;0.000;2023-03-01T12:06:19;22.00;42.40
47414;DHT22;33163;0.000;0.000;2023-03-01T12:08:59;22.00;43.00
47414;DHT22;33163;0.000;0.000;2023-03-01T12:11:41;22.10;42.50
47414;DHT22;33163;0.000;0.000;2023-03-01T12:14:35;22.20;42.00
47414;DHT22;33163;0.000;0.000;2023-03-01T12:17:36;22.20;41.80
47414;DHT22;33163;0.000;0.000;2023-03-01T12:20:20;22.20;41.90
47414;DHT22;33163;0.000;0.000;2023-03-01T12:25:58;22.30;41.70
47414;DHT22;33163;0.000;0.000;2023-03-01T12:28:44;22.20;41.60
47414;DHT22;33163;0.000;0.000;2023-03-01T12:34:25;22.20;41.70
47414;DHT22;33163;0.000;0.000;2023-03-01T12:37:08;22.20;41.80
47414;DHT22;33163;0.000;0.000;2023-03-01T12:39:49;22.20;42.20
47414;DHT22;33163;0.000;0.000;2023-03-01T12:42:27;22.30;42.60
47414;DHT22;33163;0.000;0.000;2023-03-01T12:45:31;22.30;42.60
47414;DHT22;33163;0.000;0.000;2023-03-01T12:48:29;22.30;42.70
47414;DHT22;33163;0.000;0.000;2023-03-01T12:51:01;22.30;42.70
47414;DHT22;33163;0.000;0.000;2023-03-01T12:53:32;22.30;42.70
47414;DHT22;33163;0.000;0.000;2023-03-01T12:56:02;22.30;42.80
47414;DHT22;33163;0.000;0.000;2023-03-01T12:58:36;22.40;42.80
47414;DHT22;33163;0.000;0.000;2023-03-01T13:01:16;22.40;42.90
47414;DHT22;33163;0.000;0.000;2023-03-01T13:03:59;22.40;43.10
47414;DHT22;33163;0.000;0.000;2023-03-01T13:06:34;22.40;43.10
47414;DHT22;33163;0.000;0.000;2023-03-01T13:09:09;22.40;42.80
47414;DHT22;33163;0.000;0.000;2023-03-01T13:11:41;22.40;42.80
47414;DHT22;33163;0.000;0.000;2023-03-01T13:14:39;22.40;42.70
47414;DHT22;33163;0.000;0.000;2023-03-01T13:17:30;22.40;43.10
47414;DHT22;33163;0.000;0.000;2023-03-01T13:19:58;22.40;43.10
47414;DHT22;33163;0.000;0.000;2023-03-01T13:22:29;22.40;43.00
47414;DHT22;33163;0.000;0.000;2023-03-01T13:25:13;22.50;43.70
47414;DHT22;33163;0.000;0.000;2023-03-01T13:27:40;22.50;42.70
47414;DHT22;33163;0.000;0.000;2023-03-01T13:30:39;22.50;42.60
47414;DHT22;33163;0.000;0.000;2023-03-01T13:33:44;22.50;42.50
47414;DHT22;33163;0.000;0.000;2023-03-01T13:38:56;22.50;42.30
47414;DHT22;33163;0.000;0.000;2023-03-01T13:44:26;22.60;42.20
47414;DHT22;33163;0.000;0.000;2023-03-01T13:46:58;22.60;42.00
47414;DHT22;33163;0.000;0.000;2023-03-01T13:49:28;22.60;42.00
47414;DHT22;33163;0.000;0.000;2023-03-01T13:51:57;22.70;42.00
47414;DHT22;33163;0.000;0.000;2023-03-01T13:54:29;22.60;41.70
47414;DHT22;33163;0.000;0.000;2023-03-01T13:56:57;22.70;41.90
47414;DHT22;33163;0.000;0.000;2023-03-01T13:59:24;22.70;42.50
47414;DHT22;33163;0.000;0.000;2023-03-01T14:01:56;22.70;41.60
47414;DHT22;33163;0.000;0.000;2023-03-01T14:04:25;22.70;41.70
47414;DHT22;33163;0.000;0.000;2023-03-01T14:07:09;22.60;41.40
47414;DHT22;33163;0.000;0.000;2023-03-01T14:09:39;22.60;41.80
47414;DHT22;33163;0.000;0.000;2023-03-01T14:12:19;22.60;42.00
47414;DHT22;33163;0.000;0.000;2023-03-01T14:14:55;22.60;42.30
47414;DHT22;33163;0.000;0.000;2023-03-01T14:17:47;22.50;42.50
47414;DHT22;33163;0.000;0.000;2023-03-01T14:20:19;22.50;42.90
47414;DHT22;33163;0.000;0.000;2023-03-01T14:22:47;22.50;43.20
47414;DHT22;33163;0.000;0.000;2023-03-01T14:25:21;22.40;43.40
47414;DHT22;33163;0.000;0.000;2023-03-01T14:27:55;22.40;43.40
47414;DHT22;33163;0.000;0.000;2023-03-01T14:30:24;22.40;43.40
47414;DHT22;33163;0.000;0.000;2023-03-01T14:32:54;22.40;43.30
47414;DHT22;33163;0.000;0.000;2023-03-01T14:35:23;22.40;43.30
47414;DHT22;33163;0.000;0.000;2023-03-01T14:37:51;22.40;43.40
47414;DHT22;33163;0.000;0.000;2023-03-01T14:40:24;22.40;43.40
47414;DHT22;33163;0.000;0.000;2023-03-01T14:42:52;22.30;43.40
47414;DHT22;33163;0.000;0.000;2023-03-01T14:45:20;22.20;43.10
47414;DHT22;33163;0.000;0.000;2023-03-01T14:47:47;22.20;41.70
47414;DHT22;33163;0.000;0.000;2023-03-01T14:50:23;22.00;40.60
47414;DHT22;33163;0.000;0.000;2023-03-01T14:52:53;22.10;42.20
47414;DHT22;33163;0.000;0.000;2023-03-01T14:55:22;22.00;43.20
47414;DHT22;33163;0.000;0.000;2023-03-01T14:57:51;22.10;43.30
47414;DHT22;33163;0.000;0.000;2023-03-01T15:00:20;22.10;44.50
47414;DHT22;33163;0.000;0.000;2023-03-01T15:02:48;22.10;44.50
47414;DHT22;33163;0.000;0.000;2023-03-01T15:05:27;22.10;45.30
47414;DHT22;33163;0.000;0.000;2023-03-01T15:07:57;22.10;45.80
47414;DHT22;33163;0.000;0.000;2023-03-01T15:10:27;22.00;45.50
47414;DHT22;33163;0.000;0.000;2023-03-01T15:12:54;22.00;44.90
47414;DHT22;33163;0.000;0.000;2023-03-01T15:15:33;21.90;44.70
47414;DHT22;33163;0.000;0.000;2023-03-01T15:18:02;21.90;44.70
47414;DHT22;33163;0.000;0.000;2023-03-01T15:20:31;21.90;45.30
47414;DHT22;33163;0.000;0.000;2023-03-01T15:23:01;21.90;46.20
47414;DHT22;33163;0.000;0.000;2023-03-01T15:25:29;21.80;46.70
47414;DHT22;33163;0.000;0.000;2023-03-01T15:27:59;21.80;47.00
47414;DHT22;33163;0.000;0.000;2023-03-01T15:30:27;21.90;47.90
47414;DHT22;33163;0.000;0.000;2023-03-01T15:33:25;21.80;47.80
47414;DHT22;33163;0.000;0.000;2023-03-01T15:35:56;21.80;47.90
47414;DHT22;33163;0.000;0.000;2023-03-01T15:38:35;21.80;48.30
47414;DHT22;33163;0.000;0.000;2023-03-01T15:41:05;21.80;49.30
47414;DHT22;33163;0.000;0.000;2023-03-01T15:43:47;21.80;49.10
47414;DHT22;33163;0.000;0.000;2023-03-01T15:46:33;21.80;49.10
47414;DHT22;33163;0.000;0.000;2023-03-01T15:49:03;21.80;49.60
47414;DHT22;33163;0.000;0.000;2023-03-01T15:51:33;21.80;49.30
47414;DHT22;33163;0.000;0.000;2023-03-01T15:54:03;21.80;49.90
47414;DHT22;33163;0.000;0.000;2023-03-01T15:56:31;21.80;50.10
47414;DHT22;33163;0.000;0.000;2023-03-01T15:58:59;21.80;50.30
47414;DHT22;33163;0.000;0.000;2023-03-01T16:01:27;21.80;50.80
47414;DHT22;33163;0.000;0.000;2023-03-01T16:03:54;21.80;50.60
47414;DHT22;33163;0.000;0.000;2023-03-01T16:06:22;21.70;50.50
47414;DHT22;33163;0.000;0.000;2023-03-01T16:08:50;21.70;50.40
47414;DHT22;33163;0.000;0.000;2023-03-01T16:11:18;21.70;51.00
47414;DHT22;33163;0.000;0.000;2023-03-01T16:13:45;21.80;50.80
47414;DHT22;33163;0.000;0.000;2023-03-01T16:16:14;21.80;51.30
47414;DHT22;33163;0.000;0.000;2023-03-01T16:18:42;21.80;51.30
47414;DHT22;33163;0.000;0.000;2023-03-01T16:21:14;21.70;51.40